createdAt,value
2022-08-24T00:00:53.640Z,90.26
2022-08-24T00:01:53.772Z,89.50
2022-08-24T00:02:53.751Z,90.26
2022-08-24T00:03:55.356Z,89.73
2022-08-24T00:04:53.612Z,90.26
2022-08-24T00:05:53.609Z,89.64
2022-08-24T00:06:53.599Z,88.87
2022-08-24T00:07:53.595Z,88.53
2022-08-24T00:08:53.585Z,89.30
2022-08-24T00:09:53.583Z,89.11
2022-08-24T00:10:53.573Z,89.69
2022-08-24T00:11:53.569Z,91.22
2022-08-24T00:12:53.561Z,90.65
2022-08-24T00:13:53.555Z,91.22
2022-08-24T00:14:53.546Z,91.71
2022-08-24T00:15:53.543Z,92.29
2022-08-24T00:16:53.590Z,92.19
2022-08-24T00:17:53.528Z,92.96
2022-08-24T00:18:53.618Z,92.19
2022-08-24T00:19:53.514Z,93.15
2022-08-24T00:20:53.505Z,93.24
2022-08-24T00:21:53.501Z,93.58
2022-08-24T00:22:53.492Z,93.87
2022-08-24T00:23:53.587Z,94.26
2022-08-24T00:24:53.479Z,94.83
2022-08-24T00:25:53.473Z,93.87
2022-08-24T00:26:53.666Z,93.34
2022-08-24T00:27:53.460Z,92.96
2022-08-24T00:28:53.513Z,93.15
2022-08-24T00:29:53.447Z,92.19
2022-08-24T00:30:53.437Z,92.96
2022-08-24T00:31:53.478Z,93.34
2022-08-24T00:32:53.425Z,93.05
2022-08-24T00:33:53.419Z,92.14
2022-08-24T00:34:59.324Z,92.19
2022-08-24T00:35:53.406Z,91.80
2022-08-24T00:36:53.397Z,92.76
2022-08-24T00:37:53.393Z,92.33
2022-08-24T00:38:53.383Z,93.05
2022-08-24T00:39:53.433Z,92.33
2022-08-24T00:40:53.371Z,92.05
2022-08-24T00:41:53.363Z,91.42
2022-08-24T00:42:53.357Z,92.09
2022-08-24T00:43:53.349Z,92.19
2022-08-24T00:44:53.342Z,92.14
2022-08-24T00:45:53.384Z,92.72
2022-08-24T00:46:53.327Z,92.76
2022-08-24T00:47:53.323Z,92.33
2022-08-24T00:48:53.313Z,92.43
2022-08-24T00:49:53.310Z,91.95
2022-08-24T00:50:53.299Z,92.14
2022-08-24T00:51:53.293Z,92.19
2022-08-24T00:52:53.285Z,92.24
2022-08-24T00:53:53.282Z,92.14
2022-08-24T00:54:53.270Z,92.14
2022-08-24T00:55:53.265Z,92.24
2022-08-24T00:56:53.256Z,92.62
2022-08-24T00:57:53.253Z,92.24
2022-08-24T00:58:56.877Z,92.14
2022-08-24T00:59:53.238Z,92.33
2022-08-24T01:00:53.280Z,93.01
2022-08-24T01:01:53.264Z,93.39
2022-08-24T01:02:53.213Z,92.72
2022-08-24T01:03:56.790Z,92.43
2022-08-24T01:04:53.201Z,93.19
2022-08-24T01:05:53.197Z,93.29
2022-08-24T01:06:53.186Z,93.58
2022-08-24T01:07:53.180Z,93.87
2022-08-24T01:08:56.324Z,93.77
2022-08-24T01:09:53.170Z,93.68
2022-08-24T01:10:53.158Z,95.03
2022-08-24T01:11:53.153Z,95.50
2022-08-24T01:13:00.502Z,95.79
2022-08-24T01:13:53.143Z,95.50
2022-08-24T01:14:53.129Z,95.60
2022-08-24T01:15:53.198Z,95.98
2022-08-24T01:16:53.116Z,96.22
2022-08-24T01:17:53.110Z,96.42
2022-08-24T01:18:53.100Z,96.03
2022-08-24T01:19:53.095Z,96.32
2022-08-24T01:20:53.087Z,97.19
2022-08-24T01:21:53.082Z,97.38
2022-08-24T01:22:53.072Z,96.99
2022-08-24T01:23:53.067Z,97.47
2022-08-24T01:24:53.161Z,96.80
2022-08-24T01:25:53.051Z,96.42
2022-08-24T01:26:53.042Z,96.32
2022-08-24T01:27:53.038Z,96.61
2022-08-24T01:28:53.029Z,96.99
2022-08-24T01:29:53.024Z,96.99
2022-08-24T01:30:53.014Z,96.99
2022-08-24T01:31:53.126Z,97.96
2022-08-24T01:32:53.015Z,97.47
2022-08-24T01:33:52.997Z,98.14
2022-08-24T01:34:52.984Z,98.24
2022-08-24T01:35:52.981Z,98.05
2022-08-24T01:36:52.971Z,98.10
2022-08-24T01:37:52.965Z,97.96
2022-08-24T01:38:52.956Z,98.67
2022-08-24T01:39:52.990Z,98.67
2022-08-24T01:40:52.943Z,98.19
2022-08-24T01:41:52.938Z,98.19
2022-08-24T01:42:52.926Z,97.81
2022-08-24T01:43:52.923Z,97.71
2022-08-24T01:44:52.912Z,97.81
2022-08-24T01:45:52.910Z,97.81
2022-08-24T01:46:53.051Z,97.42
2022-08-24T01:47:52.909Z,96.94
2022-08-24T01:48:52.907Z,96.75
2022-08-24T01:49:52.904Z,97.24
2022-08-24T01:50:52.924Z,98.00
2022-08-24T01:51:52.861Z,97.81
2022-08-24T01:53:04.846Z,97.71
2022-08-24T01:53:52.849Z,97.81
2022-08-24T01:54:52.843Z,97.91
2022-08-24T01:55:52.833Z,98.00
2022-08-24T01:56:52.824Z,98.10
2022-08-24T01:57:52.819Z,97.81
2022-08-24T01:58:52.809Z,97.91
2022-08-24T01:59:52.804Z,97.52
2022-08-24T02:00:52.793Z,97.91
2022-08-24T02:01:52.853Z,97.14
2022-08-24T02:02:52.823Z,96.99
2022-08-24T02:03:52.776Z,97.04
2022-08-24T02:04:52.764Z,97.09
2022-08-24T02:05:52.760Z,96.61
2022-08-24T02:06:52.748Z,96.99
2022-08-24T02:07:52.743Z,97.47
2022-08-24T02:08:52.733Z,97.09
2022-08-24T02:09:52.744Z,97.47
2022-08-24T02:10:56.275Z,97.81
2022-08-24T02:11:52.713Z,98.38
2022-08-24T02:12:52.704Z,98.48
2022-08-24T02:13:52.698Z,99.25
2022-08-24T02:14:52.688Z,99.73
2022-08-24T02:15:52.733Z,99.44
2022-08-24T02:16:52.675Z,99.99
2022-08-24T02:17:52.670Z,99.99
2022-08-24T02:18:52.659Z,99.99
2022-08-24T02:19:52.653Z,99.82
2022-08-24T02:20:52.643Z,99.99
2022-08-24T02:21:52.639Z,99.99
2022-08-24T02:22:52.628Z,99.99
2022-08-24T02:23:52.624Z,99.99
2022-08-24T02:24:52.613Z,99.73
2022-08-24T02:25:52.609Z,99.39
2022-08-24T02:26:52.600Z,99.96
2022-08-24T02:27:52.592Z,99.92
2022-08-24T02:28:52.584Z,99.96
2022-08-24T02:29:52.578Z,99.73
2022-08-24T02:30:52.609Z,99.92
2022-08-24T02:31:52.563Z,99.99
2022-08-24T02:32:52.554Z,99.99
2022-08-24T02:33:52.551Z,99.99
2022-08-24T02:34:54.745Z,99.99
2022-08-24T02:35:52.533Z,99.99
2022-08-24T02:36:52.521Z,99.99
2022-08-24T02:37:52.518Z,99.99
2022-08-24T02:38:52.508Z,99.99
2022-08-24T02:39:52.553Z,99.99
2022-08-24T02:40:52.494Z,99.99
2022-08-24T02:41:52.491Z,99.99
2022-08-24T02:42:52.478Z,99.99
2022-08-24T02:43:52.468Z,99.99
2022-08-24T02:44:52.463Z,99.99
2022-08-24T02:45:52.453Z,99.99
2022-08-24T02:46:52.447Z,99.99
2022-08-24T02:47:52.437Z,99.99
2022-08-24T02:48:57.401Z,99.99
2022-08-24T02:49:52.422Z,99.99
2022-08-24T02:50:52.415Z,99.99
2022-08-24T02:51:52.405Z,99.99
2022-08-24T02:52:52.406Z,99.99
2022-08-24T02:53:52.390Z,99.99
2022-08-24T02:54:52.386Z,99.99
2022-08-24T02:55:52.375Z,99.99
2022-08-24T02:56:52.370Z,99.99
2022-08-24T02:57:52.363Z,99.99
2022-08-24T02:58:52.355Z,99.99
2022-08-24T02:59:52.344Z,99.99
2022-08-24T03:00:52.338Z,99.99
2022-08-24T03:01:52.359Z,99.99
2022-08-24T03:02:52.388Z,99.99
2022-08-24T03:03:52.317Z,99.99
2022-08-24T03:04:52.306Z,99.99
2022-08-24T03:05:52.346Z,99.99
2022-08-24T03:06:52.289Z,99.99
2022-08-24T03:07:52.504Z,99.99
2022-08-24T03:08:53.316Z,99.99
2022-08-24T03:09:52.266Z,99.99
2022-08-24T03:10:52.259Z,99.99
2022-08-24T03:11:52.254Z,99.99
2022-08-24T03:12:52.244Z,99.99
2022-08-24T03:13:52.235Z,99.99
2022-08-24T03:14:52.228Z,99.99
2022-08-24T03:15:52.268Z,99.99
2022-08-24T03:16:52.211Z,99.99
2022-08-24T03:17:52.205Z,99.99
2022-08-24T03:18:52.196Z,99.99
2022-08-24T03:19:52.186Z,99.99
2022-08-24T03:20:52.181Z,99.99
2022-08-24T03:21:52.174Z,99.99
2022-08-24T03:22:52.167Z,99.99
2022-08-24T03:23:52.154Z,99.99
2022-08-24T03:24:52.149Z,99.99
2022-08-24T03:25:52.151Z,99.99
2022-08-24T03:26:52.132Z,99.99
2022-08-24T03:27:52.121Z,99.99
2022-08-24T03:28:52.116Z,99.99
2022-08-24T03:29:52.107Z,99.99
2022-08-24T03:30:52.113Z,99.99
2022-08-24T03:31:52.090Z,99.99
2022-08-24T03:32:52.086Z,99.99
2022-08-24T03:33:52.173Z,99.99
2022-08-24T03:34:52.069Z,99.99
2022-08-24T03:35:52.058Z,99.99
2022-08-24T03:36:52.053Z,99.99
2022-08-24T03:37:52.044Z,99.99
2022-08-24T03:38:52.036Z,99.99
2022-08-24T03:39:52.073Z,99.99
2022-08-24T03:40:52.024Z,99.99
2022-08-24T03:41:52.010Z,99.99
2022-08-24T03:42:52.008Z,99.99
2022-08-24T03:43:51.995Z,99.99
2022-08-24T03:44:51.989Z,99.99
2022-08-24T03:45:52.008Z,99.99
2022-08-24T03:46:51.972Z,99.99
2022-08-24T03:47:51.962Z,99.99
2022-08-24T03:48:51.956Z,99.99
2022-08-24T03:49:51.946Z,99.99
2022-08-24T03:50:51.940Z,99.99
2022-08-24T03:51:51.930Z,99.99
2022-08-24T03:52:51.925Z,99.99
2022-08-24T03:53:51.917Z,99.99
2022-08-24T03:54:51.907Z,99.99
2022-08-24T03:55:51.897Z,99.99
2022-08-24T03:56:51.892Z,99.99
2022-08-24T03:57:51.883Z,99.99
2022-08-24T03:58:51.876Z,99.99
2022-08-24T03:59:51.866Z,99.99
2022-08-24T04:00:51.891Z,99.99
2022-08-24T04:01:51.849Z,99.99
2022-08-24T04:02:51.896Z,99.99
2022-08-24T04:03:51.834Z,99.99
2022-08-24T04:04:51.827Z,99.99
2022-08-24T04:05:51.826Z,99.99
2022-08-24T04:06:51.811Z,99.99
2022-08-24T04:07:51.799Z,99.99
2022-08-24T04:08:51.794Z,99.99
2022-08-24T04:09:51.783Z,99.99
2022-08-24T04:10:51.777Z,99.99
2022-08-24T04:11:52.103Z,99.99
2022-08-24T04:12:51.759Z,99.99
2022-08-24T04:13:51.753Z,99.99
2022-08-24T04:14:51.745Z,99.99
2022-08-24T04:15:51.737Z,99.99
2022-08-24T04:16:51.727Z,99.99
2022-08-24T04:17:51.718Z,99.99
2022-08-24T04:18:51.711Z,99.99
2022-08-24T04:19:51.701Z,99.99
2022-08-24T04:20:51.695Z,99.99
2022-08-24T04:21:51.685Z,99.99
2022-08-24T04:22:51.677Z,99.99
2022-08-24T04:23:51.668Z,99.99
2022-08-24T04:24:51.662Z,99.99
2022-08-24T04:25:51.651Z,99.99
2022-08-24T04:26:51.646Z,99.99
2022-08-24T04:27:51.634Z,99.99
2022-08-24T04:28:51.632Z,99.99
2022-08-24T04:29:51.620Z,99.99
2022-08-24T04:30:51.614Z,99.99
2022-08-24T04:31:51.655Z,99.99
2022-08-24T04:32:51.598Z,99.99
2022-08-24T04:33:54.111Z,99.99
2022-08-24T04:34:51.578Z,99.99
2022-08-24T04:35:51.567Z,99.99
2022-08-24T04:36:51.562Z,99.99
2022-08-24T04:37:51.552Z,99.99
2022-08-24T04:38:51.546Z,99.99
2022-08-24T04:39:51.619Z,99.99
2022-08-24T04:40:51.529Z,99.99
2022-08-24T04:41:51.517Z,99.99
2022-08-24T04:42:51.516Z,99.99
2022-08-24T04:43:51.501Z,99.99
2022-08-24T04:44:51.495Z,99.99
2022-08-24T04:45:51.570Z,99.99
2022-08-24T04:46:51.477Z,99.99
2022-08-24T04:47:51.469Z,99.99
2022-08-24T04:48:51.463Z,99.99
2022-08-24T04:49:51.453Z,99.99
2022-08-24T04:50:51.445Z,99.99
2022-08-24T04:51:51.434Z,99.99
2022-08-24T04:52:51.428Z,99.99
2022-08-24T04:53:51.425Z,99.99
2022-08-24T04:54:51.413Z,99.99
2022-08-24T04:55:51.501Z,99.99
2022-08-24T04:56:51.395Z,99.99
2022-08-24T04:57:51.385Z,99.99
2022-08-24T04:58:51.377Z,99.99
2022-08-24T04:59:51.368Z,99.99
2022-08-24T05:00:51.463Z,99.99
2022-08-24T05:01:51.404Z,99.99
2022-08-24T05:02:51.346Z,99.99
2022-08-24T05:03:51.334Z,99.99
2022-08-24T05:04:51.330Z,99.99
2022-08-24T05:05:51.320Z,99.99
2022-08-24T05:06:53.122Z,99.99
2022-08-24T05:07:54.695Z,99.99
2022-08-24T05:08:51.297Z,99.99
2022-08-24T05:09:52.445Z,99.99
2022-08-24T05:10:51.284Z,99.99
2022-08-24T05:11:51.270Z,99.99
2022-08-24T05:12:51.277Z,99.97
2022-08-24T05:13:51.255Z,99.58
2022-08-24T05:14:51.248Z,99.10
2022-08-24T05:15:51.351Z,99.78
2022-08-24T05:16:53.243Z,99.58
2022-08-24T05:17:51.602Z,99.78
2022-08-24T05:18:51.216Z,99.73
2022-08-24T05:19:51.203Z,99.06
2022-08-24T05:20:51.197Z,98.86
2022-08-24T05:21:51.187Z,98.77
2022-08-24T05:22:55.517Z,97.86
2022-08-24T05:23:51.178Z,97.09
2022-08-24T05:24:51.167Z,96.22
2022-08-24T05:25:51.157Z,95.75
2022-08-24T05:26:51.149Z,95.75
2022-08-24T05:27:51.142Z,94.98
2022-08-24T05:28:51.134Z,94.49
2022-08-24T05:29:51.128Z,94.83
2022-08-24T05:30:51.309Z,93.68
2022-08-24T05:31:51.132Z,93.68
2022-08-24T05:32:51.106Z,93.87
2022-08-24T05:33:51.097Z,93.58
2022-08-24T05:34:51.090Z,93.00
2022-08-24T05:35:51.082Z,93.19
2022-08-24T05:36:51.077Z,92.61
2022-08-24T05:37:51.069Z,92.47
2022-08-24T05:38:51.061Z,92.18
2022-08-24T05:39:51.094Z,91.60
2022-08-24T05:40:51.063Z,92.08
2022-08-24T05:41:51.038Z,91.13
2022-08-24T05:42:51.235Z,90.64
2022-08-24T05:43:51.024Z,90.73
2022-08-24T05:44:51.021Z,90.20
2022-08-24T05:45:51.014Z,90.01
2022-08-24T05:46:51.092Z,89.92
2022-08-24T05:47:50.999Z,89.15
2022-08-24T05:48:52.962Z,89.43
2022-08-24T05:49:50.985Z,89.43
2022-08-24T05:50:50.980Z,90.01
2022-08-24T05:51:50.971Z,89.24
2022-08-24T05:52:50.978Z,89.24
2022-08-24T05:53:50.960Z,89.05
2022-08-24T05:54:50.954Z,89.53
2022-08-24T05:55:50.946Z,88.67
2022-08-24T05:56:50.942Z,88.90
2022-08-24T05:57:50.933Z,89.00
2022-08-24T05:58:50.979Z,88.61
2022-08-24T05:59:50.920Z,88.51
2022-08-24T06:00:50.916Z,88.61
2022-08-24T06:01:51.040Z,88.61
2022-08-24T06:02:50.992Z,88.51
2022-08-24T06:03:50.898Z,87.84
2022-08-24T06:04:50.890Z,87.65
2022-08-24T06:05:50.896Z,87.94
2022-08-24T06:06:50.878Z,87.94
2022-08-24T06:07:50.872Z,87.94
2022-08-24T06:08:50.867Z,87.98
2022-08-24T06:09:50.860Z,88.08
2022-08-24T06:10:50.855Z,88.27
2022-08-24T06:11:50.850Z,87.70
2022-08-24T06:12:50.842Z,87.50
2022-08-24T06:13:51.941Z,86.63
2022-08-24T06:14:50.831Z,86.44
2022-08-24T06:16:10.997Z,86.63
2022-08-24T06:16:50.906Z,86.25
2022-08-24T06:17:50.872Z,86.35
2022-08-24T06:18:50.918Z,85.77
2022-08-24T06:19:50.803Z,85.96
2022-08-24T06:20:50.801Z,85.42
2022-08-24T06:21:50.792Z,85.52
2022-08-24T06:22:50.790Z,85.33
2022-08-24T06:23:50.781Z,85.52
2022-08-24T06:24:50.777Z,85.52
2022-08-24T06:25:50.769Z,85.23
2022-08-24T06:26:50.767Z,84.84
2022-08-24T06:27:50.759Z,84.84
2022-08-24T06:28:50.757Z,85.13
2022-08-24T06:29:50.750Z,85.03
2022-08-24T06:30:50.745Z,84.36
2022-08-24T06:31:54.147Z,84.50
2022-08-24T06:32:50.734Z,83.73
2022-08-24T06:33:50.728Z,83.63
2022-08-24T06:34:50.724Z,83.63
2022-08-24T06:35:50.728Z,83.15
2022-08-24T06:36:50.713Z,83.53
2022-08-24T06:37:50.706Z,82.86
2022-08-24T06:38:50.705Z,82.09
2022-08-24T06:39:54.873Z,82.18
2022-08-24T06:40:50.694Z,81.74
2022-08-24T06:41:50.687Z,82.09
2022-08-24T06:42:50.683Z,81.93
2022-08-24T06:43:50.682Z,82.32
2022-08-24T06:44:50.674Z,81.84
2022-08-24T06:45:50.667Z,81.26
2022-08-24T06:46:50.796Z,80.87
2022-08-24T06:47:50.658Z,80.39
2022-08-24T06:48:50.656Z,79.81
2022-08-24T06:49:50.647Z,80.20
2022-08-24T06:50:50.646Z,79.85
2022-08-24T06:51:51.092Z,79.95
2022-08-24T06:52:50.638Z,79.85
2022-08-24T06:53:50.630Z,79.27
2022-08-24T06:54:50.627Z,79.37
2022-08-24T06:55:50.623Z,79.85
2022-08-24T06:56:50.615Z,79.47
2022-08-24T06:57:52.679Z,79.41
2022-08-24T06:58:50.609Z,79.47
2022-08-24T06:59:50.605Z,79.50
2022-08-24T07:00:50.649Z,79.12
2022-08-24T07:01:50.676Z,79.02
2022-08-24T07:02:50.723Z,79.12
2022-08-24T07:03:50.592Z,78.64
2022-08-24T07:04:50.583Z,78.73
2022-08-24T07:05:50.631Z,78.83
2022-08-24T07:06:50.572Z,78.83
2022-08-24T07:07:50.571Z,78.54
2022-08-24T07:08:50.565Z,78.83
2022-08-24T07:09:50.564Z,78.00
2022-08-24T07:10:50.557Z,77.90
2022-08-24T07:11:50.555Z,78.19
2022-08-24T07:12:50.550Z,77.90
2022-08-24T07:13:50.548Z,77.42
2022-08-24T07:14:50.540Z,76.93
2022-08-24T07:15:50.567Z,77.13
2022-08-24T07:16:50.534Z,77.42
2022-08-24T07:17:50.532Z,77.17
2022-08-24T07:18:50.749Z,76.87
2022-08-24T07:19:50.524Z,76.68
2022-08-24T07:20:50.523Z,76.87
2022-08-24T07:21:50.517Z,76.78
2022-08-24T07:22:50.612Z,76.97
2022-08-24T07:23:50.509Z,76.59
2022-08-24T07:24:50.507Z,76.39
2022-08-24T07:25:55.526Z,76.49
2022-08-24T07:26:50.495Z,76.29
2022-08-24T07:27:50.494Z,76.04
2022-08-24T07:28:50.490Z,76.14
2022-08-24T07:30:04.628Z,76.72
2022-08-24T07:30:50.551Z,75.95
2022-08-24T07:31:50.480Z,75.56
2022-08-24T07:32:50.475Z,76.04
2022-08-24T07:33:50.474Z,76.04
2022-08-24T07:34:50.468Z,73.14
2022-08-24T07:35:50.466Z,72.36
2022-08-24T07:36:50.460Z,72.75
2022-08-24T07:37:50.994Z,71.40
2022-08-24T07:38:50.454Z,72.27
2022-08-24T07:39:50.532Z,70.92
2022-08-24T07:41:14.318Z,69.85
2022-08-24T07:42:11.633Z,70.04
2022-08-24T07:42:50.444Z,69.08
2022-08-24T07:43:50.440Z,68.11
2022-08-24T07:44:50.436Z,68.30
2022-08-24T07:45:50.457Z,69.27
2022-08-24T07:46:50.517Z,69.11
2022-08-24T07:47:55.545Z,67.85
2022-08-24T07:49:00.065Z,67.27
2022-08-24T07:49:50.421Z,66.27
2022-08-24T07:50:50.414Z,66.27
2022-08-24T07:51:50.415Z,67.14
2022-08-24T07:52:50.410Z,66.47
2022-08-24T07:53:54.016Z,66.56
2022-08-24T07:54:50.417Z,66.37
2022-08-24T07:55:50.401Z,66.27
2022-08-24T07:56:50.424Z,66.08
2022-08-24T07:57:50.398Z,65.98
2022-08-24T07:58:50.389Z,66.17
2022-08-24T07:59:50.389Z,66.17
2022-08-24T08:00:50.445Z,66.75
2022-08-24T08:01:50.460Z,66.56
2022-08-24T08:02:50.452Z,65.88
2022-08-24T08:03:50.512Z,65.69
2022-08-24T08:04:50.373Z,65.98
2022-08-24T08:05:50.371Z,65.79
2022-08-24T08:06:50.422Z,65.40
2022-08-24T08:07:52.299Z,65.79
2022-08-24T08:08:50.358Z,65.88
2022-08-24T08:09:50.358Z,65.50
2022-08-24T08:10:50.350Z,65.69
2022-08-24T08:11:50.349Z,65.79
2022-08-24T08:12:50.344Z,66.08
2022-08-24T08:13:50.347Z,65.50
2022-08-24T08:14:50.337Z,65.88
2022-08-24T08:15:50.385Z,65.98
2022-08-24T08:16:50.330Z,65.98
2022-08-24T08:17:55.837Z,65.40
2022-08-24T08:18:56.439Z,65.30
2022-08-24T08:19:50.324Z,65.30
2022-08-24T08:20:50.316Z,65.98
2022-08-24T08:21:50.316Z,65.40
2022-08-24T08:22:50.310Z,65.30
2022-08-24T08:23:50.310Z,65.53
2022-08-24T08:24:50.304Z,65.53
2022-08-24T08:25:50.303Z,65.82
2022-08-24T08:26:50.295Z,65.43
2022-08-24T08:27:50.300Z,65.53
2022-08-24T08:28:50.291Z,65.24
2022-08-24T08:29:50.289Z,65.43
2022-08-24T08:30:50.411Z,65.53
2022-08-24T08:31:50.292Z,65.53
2022-08-24T08:32:50.279Z,65.37
2022-08-24T08:33:50.277Z,64.59
2022-08-24T08:34:50.270Z,64.20
2022-08-24T08:35:50.270Z,64.50
2022-08-24T08:36:50.268Z,64.20
2022-08-24T08:37:50.284Z,64.20
2022-08-24T08:38:50.257Z,64.30
2022-08-24T08:39:50.296Z,64.59
2022-08-24T08:40:50.252Z,64.89
2022-08-24T08:41:50.251Z,64.59
2022-08-24T08:42:50.251Z,64.20
2022-08-24T08:43:50.246Z,64.11
2022-08-24T08:44:50.239Z,63.82
2022-08-24T08:45:50.289Z,63.82
2022-08-24T08:46:50.333Z,63.62
2022-08-24T08:47:50.373Z,63.82
2022-08-24T08:48:50.235Z,63.72
2022-08-24T08:49:50.226Z,63.53
2022-08-24T08:50:50.222Z,62.66
2022-08-24T08:51:50.222Z,62.40
2022-08-24T08:52:50.216Z,62.27
2022-08-24T08:53:50.216Z,63.14
2022-08-24T08:54:50.210Z,62.66
2022-08-24T08:55:53.345Z,62.66
2022-08-24T08:56:50.204Z,62.75
2022-08-24T08:57:50.205Z,62.75
2022-08-24T08:58:57.533Z,63.43
2022-08-24T08:59:50.197Z,62.85
2022-08-24T09:00:50.194Z,62.66
2022-08-24T09:01:50.229Z,61.88
2022-08-24T09:02:50.186Z,61.40
2022-08-24T09:03:50.189Z,62.17
2022-08-24T09:04:50.234Z,61.88
2022-08-24T09:05:50.224Z,60.72
2022-08-24T09:06:50.181Z,60.72
2022-08-24T09:07:50.174Z,61.01
2022-08-24T09:08:52.225Z,61.14
2022-08-24T09:09:50.170Z,61.24
2022-08-24T09:10:50.164Z,61.43
2022-08-24T09:11:50.264Z,61.82
2022-08-24T09:12:50.179Z,61.82
2022-08-24T09:13:50.160Z,61.62
2022-08-24T09:14:50.152Z,61.43
2022-08-24T09:15:50.153Z,61.43
2022-08-24T09:16:50.279Z,61.14
2022-08-24T09:17:50.147Z,61.14
2022-08-24T09:18:50.143Z,60.85
2022-08-24T09:19:50.142Z,60.94
2022-08-24T09:20:50.135Z,61.14
2022-08-24T09:21:50.140Z,61.33
2022-08-24T09:22:50.130Z,60.68
2022-08-24T09:23:50.129Z,60.68
2022-08-24T09:24:50.124Z,60.20
2022-08-24T09:25:50.126Z,60.27
2022-08-24T09:26:50.118Z,60.30
2022-08-24T09:27:51.488Z,60.88
2022-08-24T09:28:50.114Z,60.65
2022-08-24T09:29:50.116Z,60.97
2022-08-24T09:30:50.219Z,60.78
2022-08-24T09:31:50.107Z,60.30
2022-08-24T09:32:50.117Z,60.88
2022-08-24T09:33:50.106Z,60.39
2022-08-24T09:34:50.095Z,60.30
2022-08-24T09:35:50.095Z,60.30
2022-08-24T09:36:50.093Z,61.17
2022-08-24T09:37:50.094Z,61.17
2022-08-24T09:38:50.090Z,61.26
2022-08-24T09:39:50.138Z,61.07
2022-08-24T09:40:50.081Z,60.97
2022-08-24T09:41:50.080Z,60.61
2022-08-24T09:42:50.076Z,61.10
2022-08-24T09:43:50.075Z,61.39
2022-08-24T09:44:50.070Z,60.32
2022-08-24T09:45:52.242Z,60.42
2022-08-24T09:46:50.065Z,60.42
2022-08-24T09:47:50.065Z,60.32
2022-08-24T09:48:50.061Z,59.36
2022-08-24T09:49:50.062Z,59.16
2022-08-24T09:50:50.056Z,59.84
2022-08-24T09:51:50.056Z,59.45
2022-08-24T09:52:50.051Z,59.84
2022-08-24T09:53:50.050Z,59.94
2022-08-24T09:54:50.045Z,59.45
2022-08-24T09:55:50.046Z,59.36
2022-08-24T09:56:53.779Z,59.84
2022-08-24T09:58:00.603Z,59.36
2022-08-24T09:58:50.037Z,58.97
2022-08-24T09:59:50.035Z,59.55
2022-08-24T10:00:50.080Z,59.16
2022-08-24T10:01:50.134Z,59.16
2022-08-24T10:02:50.026Z,59.36
2022-08-24T10:03:50.040Z,60.32
2022-08-24T10:04:50.112Z,60.32
2022-08-24T10:05:50.167Z,60.42
2022-08-24T10:06:50.017Z,60.13
2022-08-24T10:07:50.018Z,59.38
2022-08-24T10:08:50.013Z,59.38
2022-08-24T10:09:50.015Z,59.48
2022-08-24T10:10:50.010Z,59.09
2022-08-24T10:11:50.010Z,59.28
2022-08-24T10:12:54.123Z,59.97
2022-08-24T10:13:50.004Z,59.87
2022-08-24T10:14:49.999Z,59.97
2022-08-24T10:15:50.001Z,60.35
2022-08-24T10:16:50.046Z,60.06
2022-08-24T10:17:49.996Z,60.55
2022-08-24T10:18:49.993Z,60.06
2022-08-24T10:19:49.992Z,60.06
2022-08-24T10:20:49.989Z,59.48
2022-08-24T10:21:49.988Z,58.73
2022-08-24T10:22:49.984Z,58.83
2022-08-24T10:23:49.983Z,58.12
2022-08-24T10:24:49.981Z,58.90
2022-08-24T10:25:49.981Z,58.90
2022-08-24T10:26:49.988Z,57.73
2022-08-24T10:27:49.976Z,57.67
2022-08-24T10:28:49.972Z,58.34
2022-08-24T10:29:49.972Z,57.67
2022-08-24T10:30:49.967Z,56.11
2022-08-24T10:31:50.041Z,55.73
2022-08-24T10:32:49.964Z,56.89
2022-08-24T10:33:49.968Z,56.70
2022-08-24T10:34:49.962Z,56.43
2022-08-24T10:35:49.960Z,56.60
2022-08-24T10:36:49.956Z,56.40
2022-08-24T10:37:49.956Z,56.52
2022-08-24T10:38:49.953Z,55.36
2022-08-24T10:39:49.995Z,55.07
2022-08-24T10:40:49.947Z,55.46
2022-08-24T10:41:49.949Z,53.59
2022-08-24T10:42:49.944Z,53.81
2022-08-24T10:43:49.944Z,53.71
2022-08-24T10:44:49.949Z,54.56
2022-08-24T10:45:49.986Z,54.68
2022-08-24T10:46:49.944Z,54.78
2022-08-24T10:47:49.949Z,54.39
2022-08-24T10:48:49.935Z,54.49
2022-08-24T10:49:49.934Z,54.20
2022-08-24T10:50:49.929Z,53.71
2022-08-24T10:51:49.929Z,53.81
2022-08-24T10:52:49.928Z,54.29
2022-08-24T10:53:49.926Z,54.29
2022-08-24T10:54:49.925Z,53.61
2022-08-24T10:55:49.924Z,53.91
2022-08-24T10:56:49.919Z,53.91
2022-08-24T10:57:49.921Z,54.49
2022-08-24T10:58:49.917Z,54.49
2022-08-24T10:59:49.917Z,53.81
2022-08-24T11:00:49.929Z,53.35
2022-08-24T11:01:49.974Z,53.64
2022-08-24T11:02:49.910Z,53.45
2022-08-24T11:03:49.910Z,53.25
2022-08-24T11:04:49.907Z,52.76
2022-08-24T11:05:49.905Z,53.35
2022-08-24T11:06:49.902Z,53.64
2022-08-24T11:07:49.903Z,53.25
2022-08-24T11:08:49.902Z,52.09
2022-08-24T11:09:49.903Z,52.86
2022-08-24T11:10:49.897Z,52.86
2022-08-24T11:11:49.893Z,51.40
2022-08-24T11:12:49.896Z,52.21
2022-08-24T11:13:49.892Z,51.92
2022-08-24T11:14:49.892Z,51.23
2022-08-24T11:15:49.890Z,51.43
2022-08-24T11:16:50.580Z,52.31
2022-08-24T11:17:49.889Z,51.43
2022-08-24T11:18:49.888Z,51.14
2022-08-24T11:19:49.886Z,50.75
2022-08-24T11:20:49.886Z,50.09
2022-08-24T11:21:49.883Z,49.90
2022-08-24T11:22:49.882Z,49.80
2022-08-24T11:23:49.879Z,50.29
2022-08-24T11:24:49.880Z,50.48
2022-08-24T11:25:49.889Z,51.43
2022-08-24T11:26:53.537Z,51.17
2022-08-24T11:27:49.874Z,50.78
2022-08-24T11:28:49.876Z,49.99
2022-08-24T11:29:49.879Z,50.48
2022-08-24T11:30:49.872Z,51.07
2022-08-24T11:31:49.940Z,50.78
2022-08-24T11:32:49.870Z,50.09
2022-08-24T11:33:49.948Z,50.70
2022-08-24T11:34:49.868Z,49.73
2022-08-24T11:35:49.864Z,49.73
2022-08-24T11:36:49.869Z,49.15
2022-08-24T11:37:49.864Z,49.05
2022-08-24T11:38:49.864Z,48.56
2022-08-24T11:39:49.945Z,48.36
2022-08-24T11:40:49.863Z,48.56
2022-08-24T11:41:49.864Z,48.73
2022-08-24T11:42:49.862Z,48.44
2022-08-24T11:43:49.859Z,48.83
2022-08-24T11:44:49.875Z,49.32
2022-08-24T11:45:49.856Z,50.21
2022-08-24T11:46:49.893Z,50.41
2022-08-24T11:47:49.861Z,50.02
2022-08-24T11:48:49.858Z,48.85
2022-08-24T11:49:49.853Z,48.68
2022-08-24T11:50:49.852Z,47.80
2022-08-24T11:51:49.851Z,47.90
2022-08-24T11:52:49.852Z,47.80
2022-08-24T11:53:49.969Z,47.90
2022-08-24T11:54:49.871Z,48.68
2022-08-24T11:55:51.762Z,49.10
2022-08-24T11:56:49.849Z,49.07
2022-08-24T11:57:50.049Z,49.07
2022-08-24T11:58:49.847Z,48.39
2022-08-24T11:59:49.846Z,46.83
2022-08-24T12:00:49.849Z,47.03
2022-08-24T12:01:49.936Z,47.05
2022-08-24T12:02:50.048Z,47.05
2022-08-24T12:03:52.593Z,46.86
2022-08-24T12:04:49.845Z,46.56
2022-08-24T12:05:49.843Z,45.39
2022-08-24T12:06:49.844Z,45.49
2022-08-24T12:07:51.170Z,45.20
2022-08-24T12:08:49.845Z,44.42
2022-08-24T12:09:49.843Z,43.54
2022-08-24T12:10:49.845Z,42.96
2022-08-24T12:11:49.841Z,43.25
2022-08-24T12:12:49.843Z,43.15
2022-08-24T12:13:49.841Z,42.47
2022-08-24T12:14:49.893Z,42.96
2022-08-24T12:15:52.116Z,43.66
2022-08-24T12:16:49.951Z,44.64
2022-08-24T12:17:49.840Z,45.90
2022-08-24T12:18:49.841Z,46.30
2022-08-24T12:19:49.839Z,45.81
2022-08-24T12:20:49.848Z,46.30
2022-08-24T12:21:49.840Z,46.49
2022-08-24T12:22:49.841Z,46.39
2022-08-24T12:23:49.839Z,46.49
2022-08-24T12:24:49.843Z,46.59
2022-08-24T12:25:49.840Z,46.61
2022-08-24T12:26:49.840Z,46.31
2022-08-24T12:27:49.839Z,46.70
2022-08-24T12:28:54.101Z,46.22
2022-08-24T12:29:49.840Z,46.61
2022-08-24T12:30:49.842Z,45.05
2022-08-24T12:31:49.863Z,44.95
2022-08-24T12:32:49.844Z,45.44
2022-08-24T12:33:49.840Z,45.36
2022-08-24T12:34:50.133Z,45.05
2022-08-24T12:35:49.843Z,44.56
2022-08-24T12:36:49.842Z,43.68
2022-08-24T12:37:49.845Z,41.83
2022-08-24T12:38:49.843Z,43.39
2022-08-24T12:39:49.931Z,43.39
2022-08-24T12:40:49.859Z,43.29
2022-08-24T12:41:49.841Z,43.19
2022-08-24T12:42:52.272Z,44.46
2022-08-24T12:43:49.843Z,43.71
2022-08-24T12:44:49.895Z,44.29
2022-08-24T12:45:49.843Z,44.38
2022-08-24T12:46:49.898Z,44.46
2022-08-24T12:47:49.845Z,44.48
2022-08-24T12:48:49.847Z,43.80
2022-08-24T12:49:49.844Z,43.80
2022-08-24T12:50:49.849Z,44.09
2022-08-24T12:51:49.846Z,44.38
2022-08-24T12:52:49.848Z,44.87